createdAt,value
2018-02-20T00:01:14.505Z,5.15
2018-02-20T00:03:44.418Z,5.37
2018-02-20T00:06:13.691Z,5.19
2018-02-20T00:08:42.780Z,5.16
2018-02-20T00:11:11.856Z,5.11
2018-02-20T00:13:40.874Z,5.30
2018-02-20T00:16:10.392Z,5.26
2018-02-20T00:18:39.642Z,5.26
2018-02-20T00:21:08.730Z,4.98
2018-02-20T00:23:37.777Z,4.90
2018-02-20T00:26:07.396Z,5.07
2018-02-20T00:28:36.394Z,5.14
2018-02-20T00:31:05.680Z,4.94
2018-02-20T00:33:34.788Z,4.81
2018-02-20T00:36:03.701Z,4.78
2018-02-20T00:38:32.774Z,4.78
2018-02-20T00:41:01.642Z,4.89
2018-02-20T00:43:30.852Z,4.86
2018-02-20T00:45:59.977Z,4.85
2018-02-20T00:48:29.210Z,4.89
2018-02-20T00:50:58.165Z,4.81
2018-02-20T00:53:27.199Z,4.65
2018-02-20T00:55:56.217Z,4.84
2018-02-20T00:58:25.424Z,5.01
2018-02-20T01:00:54.437Z,4.93
2018-02-20T01:03:23.950Z,4.72
2018-02-20T01:05:52.790Z,4.68
2018-02-20T01:08:21.834Z,4.71
2018-02-20T01:10:51.250Z,5.02
2018-02-20T01:13:20.801Z,4.86
2018-02-20T01:15:49.786Z,4.68
2018-02-20T01:18:19.172Z,4.65
2018-02-20T01:20:48.264Z,4.97
2018-02-20T01:23:17.347Z,4.74
2018-02-20T01:25:46.666Z,4.57
2018-02-20T01:28:16.213Z,4.66
2018-02-20T01:30:45.418Z,4.74
2018-02-20T01:33:14.564Z,4.77
2018-02-20T01:35:43.785Z,4.75
2018-02-20T01:38:13.129Z,4.67
2018-02-20T01:40:42.056Z,4.71
2018-02-20T01:43:10.909Z,4.87
2018-02-20T01:45:39.876Z,4.91
2018-02-20T01:48:09.318Z,4.83
2018-02-20T01:50:38.837Z,4.73
2018-02-20T01:53:08.251Z,4.86
2018-02-20T01:55:37.516Z,4.98
2018-02-20T01:58:06.586Z,4.76
2018-02-20T02:00:35.899Z,4.94
2018-02-20T02:03:04.822Z,4.95
2018-02-20T02:05:33.972Z,4.76
2018-02-20T02:08:03.030Z,4.81
2018-02-20T02:10:32.532Z,5.20
2018-02-20T02:13:01.573Z,5.23
2018-02-20T02:15:30.658Z,5.25
2018-02-20T02:17:59.689Z,5.14
2018-02-20T02:20:28.753Z,5.04
2018-02-20T02:22:57.858Z,5.24
2018-02-20T02:25:26.910Z,5.18
2018-02-20T02:27:56.451Z,5.06
2018-02-20T02:30:25.745Z,5.12
2018-02-20T02:32:54.982Z,5.07
2018-02-20T02:35:24.307Z,5.28
2018-02-20T02:37:53.366Z,5.21
2018-02-20T02:40:22.909Z,5.36
2018-02-20T02:42:52.077Z,5.05
2018-02-20T02:45:21.317Z,5.15
2018-02-20T02:47:50.808Z,5.08
2018-02-20T02:50:20.364Z,5.13
2018-02-20T02:52:49.435Z,5.31
2018-02-20T02:55:18.956Z,5.45
2018-02-20T02:57:48.254Z,5.41
2018-02-20T03:00:17.250Z,5.30
2018-02-20T03:02:46.478Z,5.50
2018-02-20T03:05:16.160Z,5.17
2018-02-20T03:07:45.420Z,5.38
2018-02-20T03:10:14.486Z,5.35
2018-02-20T03:12:43.514Z,5.27
2018-02-20T03:15:12.422Z,5.31
2018-02-20T03:17:41.498Z,5.46
2018-02-20T03:20:10.771Z,5.18
2018-02-20T03:22:40.062Z,5.27
2018-02-20T03:25:09.394Z,5.23
2018-02-20T03:27:38.468Z,5.07
2018-02-20T03:30:07.337Z,4.92
2018-02-20T03:32:36.379Z,5.05
2018-02-20T03:35:05.377Z,5.31
2018-02-20T03:37:34.678Z,5.19
2018-02-20T03:40:03.858Z,5.29
2018-02-20T03:42:32.825Z,5.14
2018-02-20T03:45:01.959Z,5.12
2018-02-20T03:47:31.232Z,5.43
2018-02-20T03:50:00.562Z,5.22
2018-02-20T03:52:29.516Z,5.11
2018-02-20T03:54:58.542Z,5.21
2018-02-20T03:57:27.649Z,5.19
2018-02-20T03:59:56.876Z,5.06
2018-02-20T04:02:26.142Z,5.02
2018-02-20T04:04:55.076Z,5.14
2018-02-20T04:07:24.284Z,5.41
2018-02-20T04:09:53.637Z,5.19
2018-02-20T04:12:22.638Z,5.11
2018-02-20T04:14:51.913Z,5.32
2018-02-20T04:17:20.807Z,5.30
2018-02-20T04:19:49.718Z,4.99
2018-02-20T04:22:18.868Z,5.11
2018-02-20T04:24:47.792Z,5.12
2018-02-20T04:27:17.095Z,5.12
2018-02-20T04:29:46.230Z,5.10
2018-02-20T04:32:15.540Z,5.22
2018-02-20T04:34:44.626Z,5.23
2018-02-20T04:37:13.819Z,5.07
2018-02-20T04:39:43.344Z,5.31
2018-02-20T04:42:12.623Z,5.48
2018-02-20T04:44:41.623Z,5.44
2018-02-20T04:47:10.711Z,5.54
2018-02-20T04:49:39.924Z,5.52
2018-02-20T04:52:08.950Z,5.15
2018-02-20T04:54:38.827Z,5.32
2018-02-20T04:57:07.934Z,5.33
2018-02-20T04:59:37.009Z,5.36
2018-02-20T05:02:06.524Z,5.23
2018-02-20T05:04:35.428Z,5.25
2018-02-20T05:07:04.640Z,5.50
2018-02-20T05:09:33.890Z,5.62
2018-02-20T05:12:03.217Z,5.44
2018-02-20T05:14:32.137Z,5.31
2018-02-20T05:17:01.035Z,5.47
2018-02-20T05:19:30.042Z,5.47
2018-02-20T05:21:59.186Z,5.43
2018-02-20T05:24:28.186Z,5.55
2018-02-20T05:26:57.295Z,5.54
2018-02-20T05:29:26.300Z,5.76
2018-02-20T05:31:55.466Z,5.60
2018-02-20T05:34:24.542Z,5.61
2018-02-20T05:36:53.521Z,5.73
2018-02-20T05:39:22.858Z,5.86
2018-02-20T05:41:51.947Z,5.68
2018-02-20T05:44:21.217Z,5.61
2018-02-20T05:46:50.258Z,5.43
2018-02-20T05:49:19.515Z,5.40
2018-02-20T05:51:48.815Z,5.56
2018-02-20T05:54:18.112Z,5.58
2018-02-20T05:56:47.445Z,5.69
2018-02-20T05:59:16.532Z,5.68
2018-02-20T06:01:45.648Z,5.56
2018-02-20T06:04:14.580Z,5.58
2018-02-20T06:06:43.916Z,5.60
2018-02-20T06:09:12.798Z,5.80
2018-02-20T06:11:42.135Z,5.41
2018-02-20T06:14:11.109Z,5.56
2018-02-20T06:16:40.024Z,5.61
2018-02-20T06:19:08.895Z,5.48
2018-02-20T06:21:37.897Z,5.46
2018-02-20T06:24:06.814Z,5.50
2018-02-20T06:26:35.993Z,6.00
2018-02-20T06:29:05.273Z,5.52
2018-02-20T06:31:34.530Z,5.36
2018-02-20T06:34:03.721Z,5.57
2018-02-20T06:36:33.299Z,5.62
2018-02-20T06:39:01.965Z,5.53
2018-02-20T06:41:30.850Z,5.45
2018-02-20T06:44:00.023Z,5.65
2018-02-20T06:46:29.702Z,5.59
2018-02-20T06:48:59.087Z,5.68
2018-02-20T06:51:28.439Z,5.70
2018-02-20T06:53:57.509Z,5.92
2018-02-20T06:56:26.673Z,5.90
2018-02-20T06:58:55.966Z,5.98
2018-02-20T07:01:24.878Z,6.04
2018-02-20T07:03:53.948Z,6.26
2018-02-20T07:06:23.328Z,6.31
2018-02-20T07:08:52.413Z,6.38
2018-02-20T07:11:21.753Z,6.79
2018-02-20T07:13:50.794Z,6.80
2018-02-20T07:16:19.882Z,7.10
2018-02-20T07:18:49.470Z,6.97
2018-02-20T07:21:18.566Z,6.98
2018-02-20T07:23:47.589Z,7.10
2018-02-20T07:26:16.678Z,7.09
2018-02-20T07:28:45.719Z,7.09
2018-02-20T07:31:14.961Z,7.01
2018-02-20T07:33:43.913Z,7.02
2018-02-20T07:36:13.029Z,7.42
2018-02-20T07:38:42.382Z,7.22
2018-02-20T07:41:11.957Z,7.27
2018-02-20T07:43:40.821Z,7.41
2018-02-20T07:46:09.945Z,7.32
2018-02-20T07:48:39.101Z,7.36
2018-02-20T07:51:08.614Z,7.53
2018-02-20T07:53:37.866Z,7.61
2018-02-20T07:56:06.894Z,7.58
2018-02-20T07:58:36.181Z,7.64
2018-02-20T08:01:05.424Z,7.77
2018-02-20T08:03:34.400Z,7.75
2018-02-20T08:06:03.493Z,7.49
2018-02-20T08:08:32.671Z,7.67
2018-02-20T08:11:01.724Z,7.66
2018-02-20T08:13:30.985Z,7.81
2018-02-20T08:16:00.101Z,7.73
2018-02-20T08:18:29.267Z,7.96
2018-02-20T08:20:58.411Z,7.98
2018-02-20T08:23:27.602Z,8.05
2018-02-20T08:25:57.062Z,7.99
2018-02-20T08:28:26.358Z,8.04
2018-02-20T08:30:55.515Z,7.93
2018-02-20T08:33:24.889Z,7.93
2018-02-20T08:35:54.193Z,8.21
2018-02-20T08:38:23.129Z,8.27
2018-02-20T08:40:52.532Z,8.17
2018-02-20T08:43:21.385Z,8.06
2018-02-20T08:45:50.456Z,8.13
2018-02-20T08:48:19.673Z,8.37
2018-02-20T08:50:48.722Z,8.83
2018-02-20T08:53:17.966Z,8.69
2018-02-20T08:55:47.101Z,8.64
2018-02-20T08:58:16.392Z,8.55
2018-02-20T09:00:45.644Z,8.67
2018-02-20T09:03:15.269Z,8.57
2018-02-20T09:05:44.352Z,8.53
2018-02-20T09:08:13.624Z,8.74
2018-02-20T09:10:43.041Z,8.80
2018-02-20T09:13:12.117Z,8.71
2018-02-20T09:15:41.660Z,8.36
2018-02-20T09:18:10.847Z,8.12
2018-02-20T09:20:39.830Z,8.20
2018-02-20T09:23:08.927Z,8.64
2018-02-20T09:25:38.346Z,8.58
2018-02-20T09:28:07.529Z,8.43
2018-02-20T09:30:36.543Z,9.10
2018-02-20T09:33:05.771Z,8.92
2018-02-20T09:35:34.795Z,8.93
2018-02-20T09:38:03.897Z,9.24
2018-02-20T09:40:33.283Z,8.94
2018-02-20T09:43:02.270Z,9.48
2018-02-20T09:45:31.974Z,9.56
2018-02-20T09:48:01.083Z,9.10
2018-02-20T09:50:30.189Z,8.95
2018-02-20T09:52:59.529Z,9.14
2018-02-20T09:55:28.569Z,9.08
2018-02-20T09:57:58.009Z,8.99
2018-02-20T10:00:27.945Z,8.79
2018-02-20T10:02:57.007Z,8.96
2018-02-20T10:05:26.138Z,9.37
2018-02-20T10:07:55.336Z,9.37
2018-02-20T10:10:24.570Z,9.66
2018-02-20T10:12:53.759Z,10.19
2018-02-20T10:15:22.872Z,10.37
2018-02-20T10:17:52.035Z,10.59
2018-02-20T10:20:21.357Z,10.09
2018-02-20T10:22:50.622Z,9.88
2018-02-20T10:25:19.925Z,9.58
2018-02-20T10:27:49.260Z,10.49
2018-02-20T10:30:18.244Z,10.44
2018-02-20T10:32:47.723Z,10.75
2018-02-20T10:35:17.301Z,10.26
2018-02-20T10:37:46.502Z,10.28
2018-02-20T10:40:16.042Z,10.97
2018-02-20T10:42:45.238Z,10.34
2018-02-20T10:45:14.278Z,10.09
2018-02-20T10:47:43.293Z,9.95
2018-02-20T10:50:12.644Z,10.29
2018-02-20T10:52:42.148Z,10.05
2018-02-20T10:55:11.264Z,9.94
2018-02-20T10:57:40.701Z,10.46
2018-02-20T11:00:10.096Z,10.30
2018-02-20T11:02:39.552Z,10.52
2018-02-20T11:05:08.485Z,10.58
2018-02-20T11:07:37.644Z,10.24
2018-02-20T11:10:07.149Z,10.19
2018-02-20T11:12:36.279Z,10.50
2018-02-20T11:15:05.502Z,11.07
2018-02-20T11:17:34.963Z,10.40
2018-02-20T11:20:04.463Z,10.69
2018-02-20T11:22:33.642Z,10.61
2018-02-20T11:25:03.077Z,10.29
2018-02-20T11:27:32.349Z,9.63
2018-02-20T11:30:01.653Z,9.56
2018-02-20T11:32:30.971Z,9.19
2018-02-20T11:35:00.078Z,8.84
2018-02-20T11:37:29.238Z,8.94
2018-02-20T11:39:58.610Z,8.28
2018-02-20T11:42:27.970Z,8.14
2018-02-20T11:44:57.438Z,8.96
2018-02-20T11:47:26.513Z,8.70
2018-02-20T11:49:55.652Z,8.72
2018-02-20T11:52:24.970Z,8.66
2018-02-20T11:54:54.052Z,8.83
2018-02-20T11:57:23.130Z,9.02
2018-02-20T11:59:52.293Z,8.93
2018-02-20T12:02:21.665Z,8.68
2018-02-20T12:04:50.844Z,9.25
2018-02-20T12:07:20.139Z,9.05
2018-02-20T12:09:49.872Z,9.78
2018-02-20T12:12:18.933Z,9.35
2018-02-20T12:14:48.273Z,8.98
2018-02-20T12:17:17.438Z,9.29
2018-02-20T12:19:46.491Z,9.84
2018-02-20T12:22:15.342Z,9.71
2018-02-20T12:24:44.631Z,9.71
2018-02-20T12:27:14.190Z,9.86
2018-02-20T12:29:43.340Z,9.56
2018-02-20T12:32:12.354Z,9.71
2018-02-20T12:34:41.725Z,9.59
2018-02-20T12:37:11.782Z,9.87
2018-02-20T12:39:40.872Z,9.69
2018-02-20T12:42:10.659Z,9.46
2018-02-20T12:44:39.703Z,9.56
2018-02-20T12:47:08.878Z,9.74
2018-02-20T12:49:38.218Z,9.38
2018-02-20T12:52:07.356Z,9.48
2018-02-20T12:54:36.656Z,9.64
2018-02-20T12:57:05.655Z,9.25
2018-02-20T12:59:34.802Z,9.00
2018-02-20T13:02:04.352Z,9.26
2018-02-20T13:04:33.639Z,9.14
2018-02-20T13:07:02.757Z,9.26
2018-02-20T13:09:32.295Z,9.17
2018-02-20T13:12:01.647Z,9.32
2018-02-20T13:14:31.084Z,9.22
2018-02-20T13:17:00.344Z,9.85
2018-02-20T13:19:29.757Z,9.34
2018-02-20T13:21:59.192Z,9.13
2018-02-20T13:24:28.405Z,9.64
2018-02-20T13:26:57.593Z,9.38
2018-02-20T13:29:27.397Z,9.02
2018-02-20T13:31:56.704Z,9.66
2018-02-20T13:34:26.052Z,9.50
2018-02-20T13:36:56.424Z,9.03
2018-02-20T13:39:25.594Z,8.87
2018-02-20T13:41:55.642Z,9.21
2018-02-20T13:44:25.472Z,8.80
2018-02-20T13:46:54.366Z,9.02
2018-02-20T13:49:23.604Z,9.36
2018-02-20T13:51:52.915Z,9.25
2018-02-20T13:54:22.088Z,9.53
2018-02-20T13:56:51.723Z,9.46
2018-02-20T13:59:21.024Z,9.33
2018-02-20T14:01:50.217Z,9.04
2018-02-20T14:04:19.345Z,8.79
2018-02-20T14:06:48.548Z,8.64
2018-02-20T14:09:17.922Z,8.71
2018-02-20T14:11:47.426Z,9.18
2018-02-20T14:14:16.640Z,9.10
2018-02-20T14:16:45.806Z,8.93
2018-02-20T14:19:15.765Z,8.52
2018-02-20T14:21:45.447Z,8.51
2018-02-20T14:24:14.656Z,8.61
2018-02-20T14:26:43.746Z,8.63
2018-02-20T14:29:13.052Z,8.93
2018-02-20T14:31:41.960Z,8.57
2018-02-20T14:34:11.007Z,8.46
2018-02-20T14:36:40.266Z,8.36
2018-02-20T14:39:09.518Z,8.62
2018-02-20T14:41:39.546Z,9.07
2018-02-20T14:44:09.153Z,8.92
2018-02-20T14:46:38.285Z,8.48
2018-02-20T14:49:07.510Z,8.47
2018-02-20T14:51:37.168Z,8.53
2018-02-20T14:54:06.560Z,8.33
2018-02-20T14:56:35.865Z,8.46
2018-02-20T14:59:06.013Z,8.26
2018-02-20T15:01:35.522Z,8.06
2018-02-20T15:04:04.546Z,8.43
2018-02-20T15:06:33.405Z,8.23
2018-02-20T15:09:02.667Z,7.88
2018-02-20T15:11:31.860Z,7.98
2018-02-20T15:14:01.170Z,8.26
2018-02-20T15:16:30.513Z,8.17
2018-02-20T15:19:00.078Z,8.07
2018-02-20T15:21:29.442Z,8.05
2018-02-20T15:23:59.715Z,8.08
2018-02-20T15:26:29.203Z,7.85
2018-02-20T15:28:58.521Z,8.21
2018-02-20T15:31:27.498Z,8.01
2018-02-20T15:33:56.749Z,8.28
2018-02-20T15:36:25.795Z,8.00
2018-02-20T15:38:55.253Z,8.26
2018-02-20T15:41:24.879Z,8.14
2018-02-20T15:43:54.174Z,7.76
2018-02-20T15:46:23.519Z,7.71
2018-02-20T15:48:53.157Z,7.75
2018-02-20T15:51:22.427Z,7.89
2018-02-20T15:53:51.439Z,7.99
2018-02-20T15:56:20.983Z,7.86
2018-02-20T15:58:50.296Z,7.91
2018-02-20T16:01:19.829Z,8.15
2018-02-20T16:03:49.254Z,7.73
2018-02-20T16:06:18.521Z,8.21
2018-02-20T16:08:47.498Z,7.86
2018-02-20T16:11:16.517Z,7.69
2018-02-20T16:13:45.565Z,7.74
2018-02-20T16:16:24.844Z,7.76
2018-02-20T16:18:53.978Z,8.06
2018-02-20T16:21:23.855Z,7.74
2018-02-20T16:23:52.889Z,7.68
2018-02-20T16:26:22.222Z,7.73
2018-02-20T16:28:51.605Z,7.85
2018-02-20T16:31:20.968Z,7.94
2018-02-20T16:33:50.558Z,7.73
2018-02-20T16:36:19.591Z,7.94
2018-02-20T16:38:48.430Z,8.11
2018-02-20T16:41:17.404Z,7.79
2018-02-20T16:43:46.849Z,7.73
2018-02-20T16:46:15.870Z,7.96
2018-02-20T16:48:44.921Z,8.23
2018-02-20T16:51:14.343Z,7.78
2018-02-20T16:53:43.259Z,7.75
2018-02-20T16:56:12.661Z,8.21
2018-02-20T16:58:41.867Z,7.75
2018-02-20T17:01:11.126Z,7.75
2018-02-20T17:03:40.548Z,7.91
2018-02-20T17:06:09.952Z,8.12
2018-02-20T17:08:39.139Z,7.76
2018-02-20T17:11:08.238Z,8.03
2018-02-20T17:13:37.447Z,7.81
2018-02-20T17:16:06.535Z,7.69
2018-02-20T17:18:35.643Z,8.14
2018-02-20T17:21:04.746Z,7.85
2018-02-20T17:23:33.678Z,7.94
2018-02-20T17:26:02.674Z,7.75
2018-02-20T17:28:31.964Z,7.68
2018-02-20T17:31:01.027Z,7.63
2018-02-20T17:33:30.519Z,8.15
2018-02-20T17:35:59.750Z,7.89
2018-02-20T17:38:29.108Z,7.95
2018-02-20T17:40:58.141Z,7.99
2018-02-20T17:43:27.191Z,8.01
2018-02-20T17:45:56.159Z,8.07
2018-02-20T17:48:25.783Z,8.25
2018-02-20T17:50:54.762Z,8.37
2018-02-20T17:53:24.022Z,8.18
2018-02-20T17:55:53.674Z,7.95
2018-02-20T17:58:22.726Z,8.21
2018-02-20T18:00:51.819Z,7.88
2018-02-20T18:03:21.203Z,7.93
2018-02-20T18:05:50.582Z,7.73
2018-02-20T18:08:19.628Z,8.17
2018-02-20T18:10:48.798Z,8.07
2018-02-20T18:13:17.836Z,7.96
2018-02-20T18:15:47.150Z,7.96
2018-02-20T18:18:16.193Z,7.95
2018-02-20T18:20:45.369Z,7.93
2018-02-20T18:23:14.298Z,7.72
2018-02-20T18:25:43.413Z,7.66
2018-02-20T18:28:12.639Z,7.35
2018-02-20T18:30:41.774Z,7.62
2018-02-20T18:33:10.759Z,7.70
2018-02-20T18:35:39.885Z,7.74
2018-02-20T18:38:08.924Z,7.63
2018-02-20T18:40:37.886Z,7.75
2018-02-20T18:43:07.193Z,7.70
2018-02-20T18:45:36.509Z,7.77
2018-02-20T18:48:06.047Z,7.74
2018-02-20T18:50:35.078Z,7.76
2018-02-20T18:53:04.384Z,7.75
2018-02-20T18:55:33.658Z,7.91
2018-02-20T18:58:02.957Z,7.57
2018-02-20T19:00:32.161Z,7.60
2018-02-20T19:03:01.232Z,7.50
2018-02-20T19:05:30.580Z,7.69
2018-02-20T19:07:59.445Z,7.68
2018-02-20T19:10:28.439Z,8.03
2018-02-20T19:12:57.709Z,7.98
2018-02-20T19:15:27.038Z,7.66
2018-02-20T19:17:56.960Z,8.16
2018-02-20T19:20:26.042Z,7.74
2018-02-20T19:22:55.584Z,7.88
2018-02-20T19:25:24.658Z,7.98
2018-02-20T19:27:53.737Z,7.64
2018-02-20T19:30:22.667Z,7.98
2018-02-20T19:32:51.714Z,8.00
2018-02-20T19:35:20.886Z,7.92
2018-02-20T19:37:50.133Z,8.15
2018-02-20T19:40:19.214Z,7.60
2018-02-20T19:42:48.406Z,7.89
2018-02-20T19:45:17.582Z,7.63
2018-02-20T19:47:46.786Z,7.80
2018-02-20T19:50:16.053Z,7.73
2018-02-20T19:52:45.342Z,7.85
2018-02-20T19:55:14.701Z,7.93
2018-02-20T19:57:43.875Z,7.85
2018-02-20T20:00:13.103Z,7.93
2018-02-20T20:02:42.073Z,8.14
2018-02-20T20:05:11.066Z,7.73
2018-02-20T20:07:40.343Z,8.18
2018-02-20T20:10:09.371Z,7.97
2018-02-20T20:12:38.335Z,8.35
2018-02-20T20:15:07.683Z,7.96
2018-02-20T20:17:36.878Z,7.83
2018-02-20T20:20:06.121Z,7.85
2018-02-20T20:22:35.318Z,7.85
2018-02-20T20:25:04.310Z,7.88
2018-02-20T20:27:33.326Z,7.82
2018-02-20T20:30:02.625Z,7.89
2018-02-20T20:32:31.994Z,8.08
2018-02-20T20:35:00.928Z,7.54
2018-02-20T20:37:30.306Z,7.76
2018-02-20T20:39:59.663Z,7.63
2018-02-20T20:42:28.973Z,7.93
2018-02-20T20:44:58.410Z,7.86
2018-02-20T20:47:27.670Z,8.03
2018-02-20T20:49:57.164Z,8.13
2018-02-20T20:52:26.349Z,7.99
2018-02-20T20:54:55.633Z,8.33
2018-02-20T20:57:25.022Z,8.33
2018-02-20T20:59:54.213Z,7.96
2018-02-20T21:02:23.434Z,7.98
2018-02-20T21:04:52.598Z,7.86
2018-02-20T21:07:21.629Z,7.76
2018-02-20T21:09:50.636Z,7.76
2018-02-20T21:12:19.774Z,7.94
2018-02-20T21:14:48.842Z,7.81
2018-02-20T21:17:17.969Z,7.80
2018-02-20T21:19:47.213Z,7.70
2018-02-20T21:22:16.506Z,8.05
2018-02-20T21:24:45.801Z,8.07
2018-02-20T21:27:15.254Z,7.71
2018-02-20T21:29:44.677Z,7.71
2018-02-20T21:32:13.830Z,7.96
2018-02-20T21:34:43.193Z,7.90
2018-02-20T21:37:12.451Z,7.69
2018-02-20T21:39:41.509Z,7.74
2018-02-20T21:42:10.513Z,8.20
2018-02-20T21:44:39.667Z,7.87
2018-02-20T21:47:08.949Z,7.95
2018-02-20T21:49:38.110Z,7.68
2018-02-20T21:52:07.262Z,7.53
2018-02-20T21:54:36.330Z,7.75
2018-02-20T21:57:05.554Z,7.85
2018-02-20T21:59:34.869Z,8.06
2018-02-20T22:02:04.127Z,8.02
2018-02-20T22:04:33.558Z,7.98
2018-02-20T22:07:02.837Z,7.96
2018-02-20T22:09:32.235Z,8.14
2018-02-20T22:12:02.103Z,7.98
2018-02-20T22:14:31.581Z,8.00
2018-02-20T22:17:01.054Z,8.06
2018-02-20T22:19:30.441Z,7.97
2018-02-20T22:21:59.670Z,7.93
2018-02-20T22:24:28.851Z,7.94
2018-02-20T22:26:58.061Z,7.79
2018-02-20T22:29:27.153Z,7.76
2018-02-20T22:31:56.658Z,7.74
2018-02-20T22:34:25.969Z,7.80
2018-02-20T22:36:55.031Z,7.80
2018-02-20T22:39:24.234Z,7.88
2018-02-20T22:41:53.351Z,7.80
2018-02-20T22:44:22.538Z,7.84
2018-02-20T22:46:51.817Z,7.88
2018-02-20T22:49:20.986Z,7.81
2018-02-20T22:51:50.273Z,7.86
2018-02-20T22:54:19.339Z,7.94
2018-02-20T22:56:48.698Z,7.90
2018-02-20T22:59:17.645Z,7.79
2018-02-20T23:01:46.990Z,7.84
2018-02-20T23:04:16.499Z,8.04
2018-02-20T23:06:46.040Z,7.94
2018-02-20T23:09:15.352Z,8.01
2018-02-20T23:11:48.333Z,7.76
2018-02-20T23:14:17.943Z,7.74
2018-02-20T23:16:47.021Z,7.80
2018-02-20T23:19:16.421Z,7.62
2018-02-20T23:21:45.891Z,8.08
2018-02-20T23:24:15.101Z,8.15
2018-02-20T23:26:44.374Z,8.18
2018-02-20T23:29:13.750Z,7.80
2018-02-20T23:31:43.010Z,7.71
2018-02-20T23:34:12.389Z,8.25
2018-02-20T23:36:41.522Z,7.98
2018-02-20T23:39:10.928Z,7.81
2018-02-20T23:41:40.846Z,7.70
2018-02-20T23:44:09.985Z,7.50
2018-02-20T23:46:39.566Z,7.79
2018-02-20T23:49:08.831Z,8.00
2018-02-20T23:51:38.023Z,7.85
2018-02-20T23:54:07.685Z,8.04
2018-02-20T23:56:36.833Z,8.06
2018-02-20T23:59:06.190Z,7.87
